Latest Weather Observations for Mount Crawford

IDS60901

Issued at 6:11 pm CST Monday 1 June 2020 (issued every 10 minutes, with the page automatically refreshed every 10 minutes)

About weather observations | Map of Adelaide area stations | Latest observations for Adelaide area | Other Formats
Station Details ID: 023878 Name: MOUNT CRAWFORD AWS Lat: -34.73 Lon: 138.93 Height: 525.0 m
Data from the previous 72 hours. | See also: Recent months at Mount Crawford
Date/Time
CST
Temp
°C
App
Temp
°C
Dew
Point
°C
Rel
Hum
%
Delta-T
°C
Wind Press
QNH
hPa
Press
MSL
hPa
Rain since
9am
mm
Dir  Spd
km/h
Gust
km/h
Spd
kts
Gust
kts
01/06:00pm 7.3 3.5 5.9 91 0.6 W 15 20 8 11 1020.0 1020.3 0.0
01/05:30pm 7.6 3.3 5.4 86 1.0 WSW 17 28 9 15 1019.5 1019.8 0.0
01/05:00pm 7.7 2.4 4.8 82 1.3 WSW 22 35 12 19 1019.2 1019.5 0.0
01/04:30pm 8.3 3.1 5.4 82 1.3 WSW 22 32 12 17 1018.9 1019.3 0.0
01/04:00pm 7.9 2.3 5.4 84 1.2 WSW 24 37 13 20 1018.5 1018.8 0.0
01/03:30pm 8.2 3.0 5.3 82 1.3 WSW 22 35 12 19 1018.3 1018.6 0.0
01/03:00pm 8.9 3.3 5.5 79 1.6 WSW 24 39 13 21 1018.1 1018.4 0.0
01/02:32pm 9.1 2.7 5.3 77 1.8 WSW 28 46 15 25 1017.8 1018.1 0.0
01/02:30pm 9.2 2.5 5.6 78 1.7 WSW 30 46 16 25 1017.7 1018.0 0.0
01/02:27pm 9.0 2.6 5.0 76 1.8 WSW 28 46 15 25 1017.5 1017.8 0.0
01/02:00pm 10.0 4.6 6.2 77 1.8 WSW 24 44 13 24 1017.5 1017.8 0.0
01/01:37pm 8.5 2.2 5.8 83 1.3 WSW 28 46 15 25 1017.5 1017.8 0.0
01/01:30pm 9.2 4.1 5.8 79 1.6 WSW 22 35 12 19 1017.5 1017.8 0.0
01/01:06pm 9.6 2.9 5.8 77 1.8 WSW 30 52 16 28 1016.9 1017.2 0.0
01/01:00pm 8.8 2.1 5.4 79 1.6 WSW 30 43 16 23 1017.1 1017.3 0.0
01/12:30pm 9.3 1.6 5.5 77 1.8 WSW 35 54 19 29 1016.9 1017.2 0.0
01/12:00pm 7.9 0.8 5.4 84 1.2 WSW 32 50 17 27 1017.1 1017.3 0.0
01/11:30am 8.5 1.7 5.3 80 1.5 WSW 30 48 16 26 1017.1 1017.3 0.0
01/11:01am 8.1 0.6 4.5 78 1.6 WSW 33 52 18 28 1016.7 1017.0 0.0
01/11:00am 8.1 0.6 4.3 77 1.7 WSW 33 50 18 27 1016.7 1017.0 0.0
01/10:30am 7.9 1.6 5.5 85 1.1 WSW 28 46 15 25 1016.8 1017.1 0.0
01/10:00am 7.4 0.7 5.5 88 0.9 WSW 30 44 16 24 1016.5 1016.8 0.0
01/09:30am 6.3 -0.6 4.8 90 0.7 WSW 30 56 16 30 1016.2 1016.5 0.0
01/09:15am 6.4 0.0 5.0 91 0.6 WSW 28 46 15 25 1016.0 1015.7 0.0
01/09:00am 6.4 0.8 5.4 93 0.5 WSW 24 37 13 20 1015.9 1015.6 27.8
01/08:30am 5.5 0.6 4.9 96 0.3 WSW 20 33 11 18 1015.7 1015.3 27.8
01/08:00am 5.0 -1.2 4.1 94 0.4 WSW 26 41 14 22 1015.1 1014.7 27.8
01/07:30am 5.4 0.3 4.2 92 0.5 WSW 20 32 11 17 1014.5 1014.2 27.0
01/07:00am 5.1 -1.5 4.1 93 0.4 WSW 28 48 15 26 1013.7 1013.3 27.0
01/06:46am 5.2 -1.4 4.3 94 0.4 WSW 28 61 15 33 1013.2 1012.8 27.0
01/06:30am 5.1 -0.3 4.7 97 0.2 WSW 22 33 12 18 1013.2 1012.8 26.8
01/06:00am 4.8 -0.6 4.5 98 0.1 WSW 22 43 12 23 1012.6 1012.3 26.6
01/05:30am 4.6 -0.5 4.2 97 0.2 WSW 20 30 11 16 1012.5 1012.1 26.6
01/05:00am 5.1 -0.3 4.4 95 0.3 WSW 22 35 12 19 1012.1 1011.7 25.6
01/04:30am 5.3 -1.3 4.4 94 0.4 WSW 28 41 15 22 1011.7 1011.3 25.6
01/04:00am 5.9 -1.1 4.1 88 0.8 WSW 30 48 16 26 1011.3 1010.9 25.4
01/03:30am 5.9 -1.1 5.8 99 0.0 WSW 32 50 17 27 1010.7 1010.3 25.4
01/03:09am 5.7 -0.6 5.7 100 0.0 WSW 28 48 15 26 1010.7 1010.3 25.4
01/03:00am 5.6 0.0 5.6 100 0.0 WSW 24 41 13 22 1010.6 1010.2 25.4
01/02:30am 5.8 -1.4 5.8 100 0.0 WSW 33 52 18 28 1010.2 1009.8 25.4
01/02:00am 6.2 -0.8 6.2 100 0.0 WSW 32 52 17 28 1009.4 1009.0 25.4
01/01:30am 6.3 -0.8 6.3 100 0.0 WSW 33 54 18 29 1008.9 1008.5 25.2
01/01:00am 6.3 -1.6 6.3 100 0.0 WSW 37 59 20 32 1008.6 1008.2 25.2
01/12:30am 6.8 -1.0 6.8 100 0.0 WSW 37 59 20 32 1007.6 1007.1 24.4
01/12:00am 8.0 0.5 8.0 100 0.0 W 37 61 20 33 1007.4 1006.9 24.4
 
Date/Time
CST
Temp
°C
App
Temp
°C
Dew
Point
°C
Rel
Hum
%
Delta-T
°C
Wind Press
QNH
hPa
Press
MSL
hPa
Rain since
9am
mm
Dir  Spd
km/h
Gust
km/h
Spd
kts
Gust
kts
31/11:30pm 7.9 1.7 7.9 100 0.0 W 30 54 16 29 1007.6 1007.1 23.6
31/11:21pm 8.1 -0.1 8.1 100 0.0 W 41 74 22 40 1008.0 1007.6 22.0
31/11:17pm 8.2 -1.0 8.2 100 0.0 WNW 46 74 25 40 1007.7 1007.3 21.0
31/11:00pm 8.2 -2.1 8.2 100 0.0 NW 52 78 28 42 1006.5 1006.1 17.0
31/10:30pm 8.3 -0.4 8.3 100 0.0 NW 44 69 24 37 1006.8 1006.4 15.8
31/10:00pm 8.5 0.8 8.5 100 0.0 NW 39 63 21 34 1007.7 1007.3 12.4
31/09:30pm 8.6 0.1 8.6 100 0.0 NW 43 67 23 36 1008.0 1007.6 9.4
31/09:00pm 8.7 1.0 8.7 100 0.0 NW 39 57 21 31 1008.4 1008.0 7.2
31/08:30pm 8.6 0.5 8.6 100 0.0 NW 41 67 22 36 1008.4 1008.0 7.2
31/08:00pm 8.8 1.1 8.8 100 0.0 NW 39 61 21 33 1008.8 1008.4 5.8
31/07:30pm 8.7 1.0 8.7 100 0.0 NW 39 59 21 32 1009.3 1008.8 3.8
31/07:00pm 8.6 1.3 8.6 100 0.0 NW 37 56 20 30 1009.4 1009.0 1.6
31/06:46pm 8.6 0.9 8.5 99 0.0 NW 39 61 21 33 1009.4 1009.0 1.2
31/06:30pm 8.7 1.7 8.3 97 0.2 NW 35 50 19 27 1009.6 1009.2 1.0
31/06:25pm 8.8 2.3 8.2 96 0.3 NW 32 50 17 27 1009.6 1009.2 0.8
31/06:00pm 8.8 2.5 7.4 91 0.7 WNW 30 44 16 24 1009.9 1009.5 0.4
31/05:37pm 9.8 3.0 6.7 81 1.5 NW 32 50 17 27 1010.0 1009.6 0.0
31/05:30pm 9.9 3.0 6.6 80 1.6 NW 32 46 17 25 1010.0 1009.6 0.0
31/05:00pm 9.8 3.3 6.7 81 1.5 NW 30 48 16 26 1010.3 1009.9 0.0
31/04:52pm 9.9 3.5 6.8 81 1.5 NW 30 48 16 26 1010.3 1009.9 0.0
31/04:30pm 9.7 2.9 7.0 83 1.3 WNW 32 44 17 24 1010.4 1010.0 0.0
31/04:12pm 9.5 3.1 6.8 83 1.3 WNW 30 48 16 26 1010.6 1010.2 0.0
31/04:00pm 9.8 2.9 6.3 79 1.7 WNW 32 46 17 25 1010.5 1010.1 0.0
31/03:39pm 9.8 2.9 6.3 79 1.7 WNW 32 52 17 28 1010.5 1010.1 0.0
31/03:30pm 9.8 2.7 6.3 79 1.7 WNW 33 48 18 26 1010.6 1010.2 0.0
31/03:00pm 9.6 2.7 6.5 81 1.5 WNW 32 50 17 27 1011.3 1010.9 0.0
31/02:57pm 9.6 2.7 6.3 80 1.6 WNW 32 50 17 27 1011.3 1010.9 0.0
31/02:30pm 9.6 3.4 6.3 80 1.6 WNW 28 43 15 23 1011.5 1011.1 0.0
31/02:20pm 9.8 3.5 5.8 76 1.9 WNW 28 48 15 26 1011.5 1011.1 0.0
31/02:00pm 10.2 4.0 6.0 75 2.0 WNW 28 41 15 22 1011.6 1011.2 0.0
31/01:30pm 10.1 2.4 5.5 73 2.2 WNW 35 50 19 27 1011.9 1011.5 0.0
31/01:20pm 10.2 3.2 5.8 74 2.1 WNW 32 50 17 27 1012.0 1011.6 0.0
31/01:00pm 10.1 3.9 6.3 77 1.8 WNW 28 43 15 23 1012.5 1012.1 0.0
31/12:30pm 9.7 3.8 8.9 95 0.4 WNW 30 43 16 23 1012.9 1012.6 0.0
31/12:10pm 10.0 4.0 10.0 100 0.0 WNW 32 50 17 27 1013.2 1012.8 0.0
31/12:00pm 10.2 4.6 10.2 100 0.0 W 30 44 16 24 1013.3 1012.9 0.0
31/11:30am 9.4 4.4 9.4 100 0.0 WNW 26 37 14 20 1014.0 1013.6 0.0
31/11:00am 8.8 4.0 8.8 100 0.0 WNW 24 35 13 19 1014.4 1014.1 0.0
31/10:30am 8.4 3.5 8.4 100 0.0 WNW 24 39 13 21 1014.4 1014.1 0.0
31/10:00am 8.3 3.0 8.3 100 0.0 WNW 26 37 14 20 1014.5 1014.2 0.0
31/09:30am 8.1 3.1 8.1 100 0.0 WNW 24 35 13 19 1014.7 1014.4 0.0
31/09:00am 8.1 3.1 8.1 100 0.0 WNW 24 33 13 18 1014.5 1014.2 6.2
31/08:30am 8.1 3.5 8.1 100 0.0 WNW 22 35 12 19 1014.4 1014.1 6.2
31/08:00am 8.0 3.4 8.0 100 0.0 WNW 22 32 12 17 1014.0 1013.6 6.2
31/07:30am 7.9 3.8 7.9 100 0.0 WNW 19 28 10 15 1013.9 1013.5 6.2
31/07:00am 7.6 3.2 7.6 100 0.0 W 20 28 11 15 1013.9 1013.5 6.0
31/06:30am 7.4 3.2 7.4 100 0.0 WNW 19 30 10 16 1013.7 1013.3 6.0
31/06:00am 7.5 2.0 7.5 100 0.0 W 26 39 14 21 1013.5 1013.1 5.8
31/05:30am 7.9 2.5 7.9 100 0.0 W 26 35 14 19 1013.6 1013.2 5.6
31/05:00am 8.5 3.2 8.5 100 0.0 WNW 26 35 14 19 1013.1 1012.7 5.0
31/04:30am 8.5 3.6 8.5 100 0.0 W 24 33 13 18 1013.2 1012.8 4.4
31/04:00am 8.3 2.6 8.3 100 0.0 W 28 41 15 22 1012.8 1012.5 4.4
31/03:30am 8.3 3.4 8.3 100 0.0 W 24 35 13 19 1013.1 1012.7 4.4
31/03:00am 8.1 3.5 8.1 100 0.0 W 22 32 12 17 1013.1 1012.7 3.2
31/02:30am 8.0 1.8 8.0 100 0.0 W 30 48 16 26 1013.2 1012.8 2.4
31/02:00am 8.8 2.8 8.8 100 0.0 WNW 30 48 16 26 1012.9 1012.6 1.0
31/01:52am 8.8 2.8 8.8 100 0.0 WNW 30 48 16 26 1012.9 1012.6 1.0
31/01:30am 9.0 3.1 9.0 100 0.0 WNW 30 43 16 23 1013.1 1012.7 0.8
31/01:00am 9.0 3.5 9.0 100 0.0 WNW 28 39 15 21 1013.2 1012.8 0.8
31/12:30am 9.2 3.0 9.2 100 0.0 W 32 44 17 24 1013.1 1012.7 0.8
31/12:00am 9.3 3.1 9.3 100 0.0 WNW 32 43 17 23 1013.1 1012.7 0.8
 
Date/Time
CST
Temp
°C
App
Temp
°C
Dew
Point
°C
Rel
Hum
%
Delta-T
°C
Wind Press
QNH
hPa
Press
MSL
hPa
Rain since
9am
mm
Dir  Spd
km/h
Gust
km/h
Spd
kts
Gust
kts
30/11:30pm 9.3 2.9 9.3 100 0.0 WNW 33 50 18 27 1013.1 1012.7 0.8
30/11:03pm 9.4 3.2 9.4 100 0.0 WNW 32 50 17 27 1012.9 1012.6 0.8
30/11:00pm 9.4 3.0 9.4 100 0.0 WNW 33 50 18 27 1012.8 1012.5 0.8
30/10:55pm 9.4 3.6 9.3 99 0.1 W 30 50 16 27 1012.7 1012.4 0.8
30/10:30pm 9.5 5.2 9.2 98 0.2 W 22 35 12 19 1013.1 1012.7 0.8
30/10:00pm 9.7 2.9 9.1 96 0.3 WNW 35 50 19 27 1012.5 1012.1 0.8
30/09:34pm 9.8 2.9 8.7 93 0.6 WNW 35 54 19 29 1012.4 1012.0 0.8
30/09:30pm 9.8 2.5 8.7 93 0.6 WNW 37 54 20 29 1012.4 1012.0 0.8
30/09:00pm 9.9 2.8 8.0 88 0.9 WNW 35 56 19 30 1011.8 1011.4 0.8
30/08:30pm 9.7 1.6 7.0 83 1.3 WNW 39 65 21 35 1011.1 1010.7 0.8
30/08:00pm 9.6 0.6 7.2 85 1.2 WNW 44 65 24 35 1010.7 1010.3 0.8
30/07:30pm 9.7 0.7 6.4 80 1.6 WNW 43 74 23 40 1011.5 1011.1 0.2
30/07:00pm 11.1 3.4 5.2 67 2.8 NW 35 57 19 31 1011.5 1011.1 0.0
30/06:57pm 11.2 3.4 5.1 66 2.9 NW 35 57 19 31 1011.6 1011.2 0.0
30/06:30pm 11.4 4.2 4.8 64 3.1 NW 32 43 17 23 1011.7 1011.3 0.0
30/06:00pm 11.3 4.0 4.5 63 3.2 NW 32 57 17 31 1011.3 1010.9 0.0
30/05:30pm 11.3 3.5 4.7 64 3.1 NNW 35 57 19 31 1010.9 1010.6 0.0
30/05:00pm 11.6 2.9 4.3 61 3.4 NNW 39 57 21 31 1010.9 1010.6 0.0
30/04:33pm 11.5 3.3 4.5 62 3.3 NNW 37 57 20 31 1011.3 1010.9 0.0
30/04:30pm 11.4 3.2 4.8 64 3.1 NNW 37 54 20 29 1011.2 1010.8 0.0
30/04:00pm 11.5 2.1 4.5 62 3.3 NNW 43 63 23 34 1011.1 1010.7 0.0
30/03:30pm 13.1 3.7 2.6 49 4.8 NNW 41 61 22 33 1011.6 1011.2 0.0
30/03:00pm 13.2 4.1 2.1 47 5.0 NNW 39 57 21 31 1011.5 1011.1 0.0
30/02:30pm 13.8 4.3 1.5 43 5.5 NNW 41 59 22 32 1011.2 1010.8 0.0
30/02:00pm 13.8 5.2 2.4 46 5.2 NW 37 57 20 31 1012.0 1011.6 0.0
30/01:30pm 14.8 6.1 1.7 41 5.9 NW 37 61 20 33 1012.1 1011.7 0.0
30/01:16pm 15.2 7.0 0.6 37 6.4 NW 33 59 18 32 1012.2 1011.8 0.0
30/01:00pm 15.6 6.9 2.1 40 6.2 NNW 37 52 20 28 1012.1 1011.7 0.0
30/12:39pm 16.2 7.9 2.2 39 6.5 N 35 54 19 29 1011.8 1011.4 0.0
30/12:30pm 16.2 7.0 1.5 37 6.7 N 39 54 21 29 1011.9 1011.5 0.0
30/12:20pm 16.3 8.4 2.0 38 6.6 N 33 56 18 30 1011.9 1011.5 0.0
30/12:00pm 15.9 8.2 3.4 43 5.9 N 33 46 18 25 1012.4 1012.0 0.0
30/11:30am 15.0 7.3 2.5 43 5.7 N 32 46 17 25 1012.8 1012.5 0.0
30/11:00am 14.3 6.2 3.2 47 5.1 N 35 48 19 26 1013.6 1013.2 0.0
30/10:30am 13.6 5.7 2.2 46 5.1 N 33 46 18 25 1013.9 1013.5 0.0
30/10:00am 12.9 3.1 2.5 49 4.7 N 43 65 23 35 1014.8 1014.5 0.0
30/09:40am 12.7 2.8 2.6 50 4.6 N 44 63 24 34 1015.3 1014.9 0.0
30/09:30am 12.5 2.7 2.4 50 4.5 N 43 59 23 32 1015.4 1015.0 0.0
30/09:00am 11.9 3.6 2.1 51 4.3 N 35 59 19 32 1016.2 1015.9 0.0
30/08:42am 11.4 3.1 2.2 53 4.1 N 35 54 19 29 1016.5 1016.2 0.0
30/08:30am 11.2 2.2 2.2 54 4.0 N 39 56 21 30 1016.7 1016.4 0.0
30/08:00am 10.8 2.1 1.9 54 3.9 N 37 50 20 27 1016.8 1016.5 0.0
30/07:30am 10.7 2.9 1.5 53 4.0 N 32 43 17 23 1017.3 1016.9 0.0
30/07:00am 10.6 2.8 1.7 54 3.9 N 32 43 17 23 1017.7 1017.4 0.0
30/06:30am 10.9 2.9 1.7 53 4.0 N 33 46 18 25 1018.0 1017.7 0.0
30/06:00am 11.1 2.8 1.9 53 4.0 N 35 54 19 29 1018.0 1017.7 0.0
30/05:31am 10.8 2.9 2.1 55 3.8 NNW 33 52 18 28 1017.8 1017.5 0.0
30/05:30am 11.0 2.7 2.1 54 3.9 NNW 35 52 19 28 1017.8 1017.5 0.0
30/05:22am 11.0 3.1 2.1 54 3.9 NNW 33 52 18 28 1017.7 1017.4 0.0
30/05:00am 10.5 2.2 2.1 56 3.7 NNW 35 46 19 25 1017.8 1017.5 0.0
30/04:30am 10.6 2.9 2.4 57 3.6 NNW 32 43 17 23 1018.1 1017.8 0.0
30/04:00am 10.5 2.8 2.4 57 3.6 N 32 43 17 23 1018.3 1018.0 0.0
30/03:30am 10.4 2.5 2.0 56 3.7 N 33 44 18 24 1018.5 1018.2 0.0
30/03:00am 10.8 2.8 1.6 53 4.0 N 33 46 18 25 1018.9 1018.6 0.0
30/02:30am 11.3 3.5 1.5 51 4.3 N 32 44 17 24 1019.2 1018.9 0.0
30/02:00am 11.3 3.4 1.0 49 4.4 N 32 44 17 24 1019.3 1019.0 0.0
30/01:30am 12.1 4.5 0.8 46 4.9 N 30 48 16 26 1019.5 1019.2 0.0
30/01:28am 12.4 4.8 0.8 45 5.0 N 30 48 16 26 1019.5 1019.2 0.0
30/01:00am 12.3 6.1 1.9 49 4.6 N 24 35 13 19 1019.8 1019.5 0.0
30/12:30am 11.7 5.5 2.2 52 4.2 N 24 33 13 18 1020.1 1019.8 0.0
30/12:00am 12.3 5.6 1.3 47 4.8 N 26 41 14 22 1020.6 1020.3 0.0
 
Date/Time
CST
Temp
°C
App
Temp
°C
Dew
Point
°C
Rel
Hum
%
Delta-T
°C
Wind Press
QNH
hPa
Press
MSL
hPa
Rain since
9am
mm
Dir  Spd
km/h
Gust
km/h
Spd
kts
Gust
kts
29/11:30pm 11.4 6.0 2.2 53 4.1 NNE 20 26 11 14 1020.8 1020.6 0.0
29/11:00pm 10.8 5.9 1.9 54 3.9 NNE 17 22 9 12 1021.3 1021.0 0.0
29/10:30pm 10.9 6.0 2.0 54 3.9 NNE 17 22 9 12 1021.4 1021.1 0.0
29/10:00pm 11.0 5.8 2.6 56 3.7 NNE 19 26 10 14 1021.7 1021.4 0.0
29/09:30pm 11.4 6.1 2.9 56 3.8 NNE 20 26 11 14 1022.2 1021.9 0.0
29/09:00pm 11.6 6.5 2.9 55 3.9 NNE 19 24 10 13 1022.4 1022.2 0.0
29/08:30pm 11.7 6.8 1.9 51 4.3 N 17 24 9 13 1022.7 1022.5 0.0
29/08:00pm 12.1 7.2 2.3 51 4.4 N 17 19 9 10 1022.6 1022.4 0.0
29/07:30pm 11.7 7.3 2.7 54 4.0 N 15 20 8 11 1022.5 1022.3 0.0
29/07:00pm 11.6 7.2 2.6 54 4.0 NNE 15 19 8 10 1022.6 1022.4 0.0
29/06:30pm 12.1 7.7 2.8 53 4.2 N 15 20 8 11 1022.5 1022.3 0.0

Latest Capital City Observations: Canberra | Sydney | Melbourne | Brisbane | Adelaide | Perth | Hobart | Darwin

Other formats

Comma delimited format used in spreadsheet applications
http://www.bom.gov.au/fwo/IDS60901/IDS60901.94678.axf

JavaScript Object Notation format (JSON) in row-major order
http://www.bom.gov.au/fwo/IDS60901/IDS60901.94678.json

Data quality

Most of these data are generated automatically and are frequently updated. Quality checks on data are not normally performed. It is possible for incorrect values to appear. Refer to information at About Latest Weather Observations and please check the disclaimer before using these data.